Date,TemperatureHighF,TemperatureAvgF,TemperatureLowF,DewpointHighF,DewpointAvgF,DewpointLowF,HumidityHigh,HumidityAvg,HumidityLow,PressureMaxIn,PressureMinIn,WindSpeedMaxMPH,WindSpeedAvgMPH,GustSpeedMaxMPH,PrecipitationSumIn
2013-3-1,35.6,29.5,25.0,29.7,22.9,16.9,94,76,59,30.25,30.09,14,6,14,0.08
2013-3-2,36.9,27.4,18.0,17.1,11.4,-1.0,71,52,22,30.27,30.22,19,6,19,0.00
2013-3-3,36.9,26.0,12.6,22.1,11.6,-0.3,78,56,21,30.25,30.09,10,2,10,0.00
2013-3-4,41.2,34.3,29.8,29.4,24.6,20.8,81,68,59,30.12,29.89,21,6,21,0.02
2013-3-5,35.2,32.3,30.0,30.5,25.8,18.6,92,77,56,30.12,29.87,24,9,24,0.04
2013-3-6,32.7,28.7,25.5,22.1,18.8,15.9,72,66,60,30.40,30.12,21,8,21,0.00
2013-3-7,49.5,32.3,24.4,26.7,21.1,16.5,82,64,36,30.47,30.38,10,2,10,0.00
2013-3-8,58.6,39.2,24.3,33.0,27.6,19.0,88,65,33,30.48,30.25,14,3,14,0.00
2013-3-9,60.6,46.5,38.1,42.8,35.5,30.1,88,67,49,30.26,29.81,23,8,23,0.45
2013-3-10,54.7,51.2,48.2,52.3,47.7,36.7,99,89,53,29.81,29.61,25,9,25,1.19
2013-3-11,48.7,35.7,32.0,46.9,30.7,23.7,94,82,70,29.98,29.69,25,11,25,0.01
2013-3-12,45.5,33.8,25.2,32.5,22.3,13.8,77,63,47,30.21,29.97,25,9,25,0.00
2013-3-13,43.0,30.3,23.5,16.8,11.4,-0.1,63,47,19,30.43,30.20,21,8,21,0.00
2013-3-14,51.8,35.7,21.6,32.1,22.5,10.7,76,60,37,30.42,30.15,22,6,22,0.00
2013-3-15,63.0,46.8,30.6,43.2,34.3,24.7,82,63,42,30.14,29.69,12,4,12,0.00
2013-3-16,47.8,39.7,33.3,42.4,32.9,24.8,99,77,60,30.13,29.66,19,6,19,0.00
2013-3-17,41.0,35.0,30.6,28.9,25.1,21.6,78,67,54,30.19,27.30,21,8,21,0.00
2013-3-18,50.2,36.0,27.0,36.4,28.3,14.9,93,75,32,30.03,29.72,25,8,25,0.12
2013-3-19,47.7,33.4,23.4,15.1,6.7,-3.2,59,35,13,30.21,29.99,23,8,23,0.00
2013-3-20,36.3,26.6,18.7,15.0,1.1,-11.1,59,35,15,30.28,30.14,25,9,25,0.00
2013-3-21,48.2,27.0,14.2,7.3,1.4,-7.4,54,36,13,30.17,30.04,15,3,15,0.00
2013-3-22,48.9,32.8,16.3,20.3,9.7,-0.5,74,43,14,30.11,30.03,11,2,11,0.00
2013-3-23,57.0,42.3,32.9,24.3,19.0,8.7,62,42,17,30.12,29.94,17,5,17,0.00
2013-3-24,35.6,30.6,29.1,30.6,28.4,20.6,97,91,55,30.00,29.64,21,10,21,0.00
2013-3-25,41.0,31.9,27.7,30.8,26.0,20.3,97,80,51,30.19,29.80,18,8,18,0.08
2013-3-26,46.2,36.2,30.7,23.4,20.3,10.2,72,54,25,30.36,30.18,14,6,14,0.00
2013-3-27,50.4,36.3,27.3,23.0,17.8,7.9,65,49,21,30.43,30.35,9,3,9,0.00
2013-3-28,60.4,38.9,20.1,30.6,20.5,11.4,84,53,18,30.43,26.63,8,2,8,0.00
2013-3-29,67.5,47.8,33.8,35.9,29.7,24.4,75,53,24,30.33,30.25,10,2,10,0.00
2013-3-30,56.1,47.0,34.9,44.2,38.2,28.5,92,72,54,30.26,29.94,21,6,21,0.00
2013-3-31,66.0,51.7,41.2,47.6,39.8,25.9,93,68,32,30.00,29.86,99,7,99,0.00